Time;durP1;ratioP1;P1;durP2;ratioP2;P2;SDS_P1;SDS_P2;PMS_P1;PMS_P2;Temp;Humidity;BMP_temperature;BMP_pressure;BME280_temperature;BME280_humidity;BME280_pressure;Samples;Min_cycle;Max_cycle;Signal;HPM_P1;HPM_P2
2022/05/08 00:01:55;;;;;;;;;;;;;;;12.90;85.33;97087.70;1726659;82;20080;-81
2022/05/08 00:04:20;;;;;;;;;;;;;;;12.91;85.31;97085.41;1703763;84;20097;-80
2022/05/08 00:06:46;;;;;;;;;;;;;;;12.93;85.32;97084.73;1688839;84;20085;-81
2022/05/08 00:09:12;;;;;;;;;;;;;;;12.94;85.23;97086.34;1734739;82;20134;-81
2022/05/08 00:11:38;;;;;;;;;;;;;;;12.92;85.16;97082.62;1688847;82;20141;-81
2022/05/08 00:14:03;;;;;;;;;;;;;;;12.90;85.09;97083.79;1710672;84;20124;-81
2022/05/08 00:16:29;;;;;;;;;;;;;;;12.86;85.22;97085.14;1699155;84;20084;-81
2022/05/08 00:18:55;;;;;;;;;;;;;;;12.82;85.44;97071.63;1646444;87;20138;-81
2022/05/08 00:21:20;;;;;;;;;;;;;;;12.82;85.55;97077.34;1713411;84;20146;-81
2022/05/08 00:23:46;;;;;;;;;;;;;;;12.83;85.65;97076.34;1696160;84;20098;-81
2022/05/08 00:26:12;;;;;;;;;;;;;;;12.84;85.62;97076.66;1712871;82;20180;-81
2022/05/08 00:28:38;;;;;;;;;;;;;;;12.84;85.50;97072.25;1710089;84;20092;-81
2022/05/08 00:31:04;;;;;;;;;;;;;;;12.85;85.57;97067.38;1706822;84;20096;-81
2022/05/08 00:33:31;;;;;;;;;;;;;;;12.88;85.65;97066.20;1694900;84;20133;-81
2022/05/08 00:35:57;;;;;;;;;;;;;;;12.90;85.66;97062.42;1700375;84;20102;-81
2022/05/08 00:38:22;;;;;;;;;;;;;;;12.93;85.59;97059.95;1704049;84;20338;-81
2022/05/08 00:40:48;;;;;;;;;;;;;;;12.93;85.47;97058.64;1696728;84;20153;-81
2022/05/08 00:43:32;;;;;;;;;;;;;;;12.89;85.42;97055.59;1706453;84;20105;-81
2022/05/08 00:46:01;;;;;;;;;;;;;;;12.87;85.41;97064.59;1713391;84;20352;-81
2022/05/08 00:48:26;;;;;;;;;;;;;;;12.90;85.51;97060.31;1712299;84;20146;-80
2022/05/08 00:50:52;;;;;;;;;;;;;;;12.92;85.34;97056.53;1713641;84;20090;-81
2022/05/08 00:53:18;;;;;;;;;;;;;;;12.95;85.21;97060.58;1713205;84;20121;-81
2022/05/08 00:55:45;;;;;;;;;;;;;;;12.93;85.09;97056.03;1713321;84;20165;-81
2022/05/08 00:58:11;;;;;;;;;;;;;;;12.89;85.14;97047.77;1713342;84;20383;-80
2022/05/08 01:00:37;;;;;;;;;;;;;;;12.86;85.19;97048.63;1713376;84;20154;-80
2022/05/08 01:03:02;;;;;;;;;;;;;;;12.83;85.25;97045.86;1711638;84;20372;-81
2022/05/08 01:05:29;;;;;;;;;;;;;;;12.82;85.19;97046.05;1704125;84;20105;-81
2022/05/08 01:07:55;;;;;;;;;;;;;;;12.81;85.22;97052.25;1705580;84;20089;-81
2022/05/08 01:10:21;;;;;;;;;;;;;;;12.79;85.33;97057.64;1683073;84;20134;-81
2022/05/08 01:12:46;;;;;;;;;;;;;;;12.79;85.40;97052.43;1713337;83;20323;-81
2022/05/08 01:15:18;;;;;;;;;;;;;;;12.79;85.49;97049.82;1683639;85;20073;-81
2022/05/08 01:17:46;;;;;;;;;;;;;;;12.77;85.65;97047.89;1683504;85;20148;-80
2022/05/08 01:20:12;;;;;;;;;;;;;;;12.75;85.79;97047.27;1691948;84;20153;-81
2022/05/08 01:22:37;;;;;;;;;;;;;;;12.73;85.93;97042.72;1684949;85;20136;-81
2022/05/08 01:25:04;;;;;;;;;;;;;;;12.71;86.06;97044.70;1692863;84;20103;-80
2022/05/08 01:27:30;;;;;;;;;;;;;;;12.69;86.19;97039.33;1675479;84;20199;-81
2022/05/08 01:29:55;;;;;;;;;;;;;;;12.70;86.24;97047.49;1698225;84;20343;-81
2022/05/08 01:32:21;;;;;;;;;;;;;;;12.70;86.28;97047.00;1703991;84;20086;-81
2022/05/08 01:34:47;;;;;;;;;;;;;;;12.69;86.28;97044.08;1704079;84;20117;-80
2022/05/08 01:37:12;;;;;;;;;;;;;;;12.70;86.28;97038.38;1704031;84;20085;-80
2022/05/08 01:39:38;;;;;;;;;;;;;;;12.71;86.22;97045.20;1683406;84;20379;-80
2022/05/08 01:42:06;;;;;;;;;;;;;;;12.71;86.24;97049.11;1675898;84;20111;-80
2022/05/08 01:44:32;;;;;;;;;;;;;;;12.71;86.34;97045.20;1675936;84;20168;-81
2022/05/08 01:49:43;;;;;;;;;;;;;;;12.73;86.36;97051.05;1675681;84;20126;-81
2022/05/08 01:52:09;;;;;;;;;;;;;;;12.70;86.35;97049.61;1675914;84;20119;-81
2022/05/08 01:54:35;;;;;;;;;;;;;;;12.64;86.44;97052.91;1676062;84;20079;-81
2022/05/08 01:57:00;;;;;;;;;;;;;;;12.60;86.47;97050.34;1676020;84;20167;-81
2022/05/08 01:59:26;;;;;;;;;;;;;;;12.55;86.53;97049.59;1675959;84;20084;-81
2022/05/08 02:01:52;;;;;;;;;;;;;;;12.52;86.61;97051.22;1691381;84;20351;-81
2022/05/08 02:04:18;;;;;;;;;;;;;;;12.52;86.68;97056.92;1682052;84;20105;-81
2022/05/08 02:06:45;;;;;;;;;;;;;;;12.50;86.76;97050.59;1672558;84;20093;-81
2022/05/08 02:09:11;;;;;;;;;;;;;;;12.50;86.83;97051.08;1672338;84;20097;-81
2022/05/08 02:11:37;;;;;;;;;;;;;;;12.51;86.86;97057.42;1662686;84;20351;-81
2022/05/08 02:14:02;;;;;;;;;;;;;;;12.52;86.90;97049.11;1648322;86;20098;-81
2022/05/08 02:16:29;;;;;;;;;;;;;;;12.53;86.79;97050.75;1684986;85;20150;-81
2022/05/08 02:18:56;;;;;;;;;;;;;;;12.50;86.87;97049.28;1682444;85;20171;-81
2022/05/08 02:21:21;;;;;;;;;;;;;;;12.50;86.92;97045.87;1682483;85;20098;-81
2022/05/08 02:23:47;;;;;;;;;;;;;;;12.47;86.94;97050.95;1682507;85;20107;-81
2022/05/08 02:26:13;;;;;;;;;;;;;;;12.45;87.00;97053.42;1682490;85;20083;-81
2022/05/08 02:28:39;;;;;;;;;;;;;;;12.43;87.03;97051.48;1675349;85;20075;-81
2022/05/08 02:31:05;;;;;;;;;;;;;;;12.40;87.04;97057.06;1650683;87;20126;-81
2022/05/08 02:33:30;;;;;;;;;;;;;;;12.39;86.96;97050.23;1678457;86;20168;-81
2022/05/08 02:35:56;;;;;;;;;;;;;;;12.36;86.86;97051.86;1679014;86;20346;-80
2022/05/08 02:38:21;;;;;;;;;;;;;;;12.35;87.11;97051.05;1679145;86;20093;-81
2022/05/08 02:40:47;;;;;;;;;;;;;;;12.37;87.26;97059.53;1679248;85;20101;-81
2022/05/08 02:43:14;;;;;;;;;;;;;;;12.35;86.95;97053.66;1677367;85;20105;-81
2022/05/08 02:45:40;;;;;;;;;;;;;;;12.32;86.85;97055.31;1651827;87;20811;-81
2022/05/08 02:48:08;;;;;;;;;;;;;;;12.28;87.14;97059.27;1651767;86;20105;-81
2022/05/08 02:50:33;;;;;;;;;;;;;;;12.26;87.43;97056.03;1651608;86;20173;-81
2022/05/08 02:53:00;;;;;;;;;;;;;;;12.22;87.58;97060.79;1651514;86;20146;-81
2022/05/08 03:00:54;;;;;;;;;;;;;;;12.23;87.85;97065.02;1675442;86;20122;-81
2022/05/08 03:03:20;;;;;;;;;;;;;;;12.27;87.86;97065.47;1672015;84;20116;-81
2022/05/08 03:05:47;;;;;;;;;;;;;;;12.29;87.78;97062.19;1679019;86;20410;-81
2022/05/08 03:08:15;;;;;;;;;;;;;;;12.33;87.74;97065.56;1679034;86;20142;-81
2022/05/08 03:13:25;;;;;;;;;;;;;;;12.39;87.56;97060.66;1679123;86;20105;-81
2022/05/08 03:15:51;;;;;;;;;;;;;;;12.41;87.50;97071.70;1654676;85;20115;-81
2022/05/08 03:18:17;;;;;;;;;;;;;;;12.39;87.45;97065.38;1639807;86;20117;-81
2022/05/08 03:20:43;;;;;;;;;;;;;;;12.37;87.47;97063.93;1678969;86;20142;-81
2022/05/08 03:23:08;;;;;;;;;;;;;;;12.37;87.41;97066.54;1678820;85;20089;-81
2022/05/08 03:25:34;;;;;;;;;;;;;;;12.35;87.51;97062.78;1679181;85;20097;-81
2022/05/08 03:27:59;;;;;;;;;;;;;;;12.32;87.38;97067.05;1679046;85;20193;-81
2022/05/08 03:30:25;;;;;;;;;;;;;;;12.31;87.56;97066.23;1679221;85;20101;-81
2022/05/08 03:32:51;;;;;;;;;;;;;;;12.35;87.62;97070.59;1679160;86;20081;-81
2022/05/08 03:35:16;;;;;;;;;;;;;;;12.39;87.74;97068.47;1676860;85;20192;-80
2022/05/08 03:37:42;;;;;;;;;;;;;;;12.45;87.67;97068.56;1668829;85;20162;-81
2022/05/08 03:40:08;;;;;;;;;;;;;;;12.49;87.65;97071.63;1670330;86;20110;-80
2022/05/08 03:42:34;;;;;;;;;;;;;;;12.52;87.84;97075.98;1670377;86;20118;-80
2022/05/08 03:44:59;;;;;;;;;;;;;;;12.53;87.91;97078.12;1670350;86;20176;-80
2022/05/08 03:47:25;;;;;;;;;;;;;;;12.53;88.04;97072.42;1670524;86;20124;-81
2022/05/08 03:49:51;;;;;;;;;;;;;;;12.56;88.17;97077.77;1670425;86;20094;-80
2022/05/08 03:52:16;;;;;;;;;;;;;;;12.58;88.13;97083.11;1670466;86;20146;-81
2022/05/08 03:54:42;;;;;;;;;;;;;;;12.62;88.03;97082.27;1678790;86;20094;-80
2022/05/08 03:57:07;;;;;;;;;;;;;;;12.62;87.91;97080.46;1678386;84;20375;-80
2022/05/08 03:59:33;;;;;;;;;;;;;;;12.61;87.92;97087.97;1679175;86;20160;-80
2022/05/08 04:01:59;;;;;;;;;;;;;;;12.64;88.15;97084.19;1679338;86;20149;-80
2022/05/08 04:04:24;;;;;;;;;;;;;;;12.62;88.25;97088.78;1679492;86;20089;-80
2022/05/08 04:06:50;;;;;;;;;;;;;;;12.61;88.46;97087.16;1679594;86;20121;-79
2022/05/08 04:09:18;;;;;;;;;;;;;;;12.60;88.50;97085.54;1670696;85;20341;-79
2022/05/08 04:11:43;;;;;;;;;;;;;;;12.58;88.57;97090.94;1665965;84;20103;-79
2022/05/08 04:14:09;;;;;;;;;;;;;;;12.57;88.70;97092.42;1671929;86;20123;-79
2022/05/08 04:16:35;;;;;;;;;;;;;;;12.58;88.87;97093.55;1733999;83;20075;-79
2022/05/08 04:19:00;;;;;;;;;;;;;;;12.59;89.00;97099.07;1734046;82;20096;-79
2022/05/08 04:21:27;;;;;;;;;;;;;;;12.60;89.23;97094.17;1734021;82;20143;-79
2022/05/08 04:26:36;;;;;;;;;;;;;;;12.60;89.40;97090.27;1725941;82;20146;-79
2022/05/08 04:29:03;;;;;;;;;;;;;;;12.62;89.57;97096.59;1704293;84;20135;-79
2022/05/08 04:31:29;;;;;;;;;;;;;;;12.65;89.74;97096.23;1713881;84;20093;-79
2022/05/08 04:33:54;;;;;;;;;;;;;;;12.71;89.91;97095.55;1713909;84;20170;-80
2022/05/08 04:36:20;;;;;;;;;;;;;;;12.72;89.79;97101.08;1687567;84;20142;-80
2022/05/08 04:38:46;;;;;;;;;;;;;;;12.74;89.97;97099.10;1713953;84;20121;-80
2022/05/08 04:41:11;;;;;;;;;;;;;;;12.74;90.01;97098.30;1713933;84;20402;-79
2022/05/08 04:43:38;;;;;;;;;;;;;;;12.73;89.96;97099.28;1713767;84;20090;-80
2022/05/08 04:46:03;;;;;;;;;;;;;;;12.75;89.94;97103.33;1711282;84;20473;-80
2022/05/08 04:48:29;;;;;;;;;;;;;;;12.80;89.89;97106.20;1692426;84;20113;-80
2022/05/08 04:50:54;;;;;;;;;;;;;;;12.83;89.84;97108.45;1680126;85;20143;-80
2022/05/08 04:53:20;;;;;;;;;;;;;;;12.89;89.91;97109.55;1713064;84;20148;-80
2022/05/08 04:55:46;;;;;;;;;;;;;;;12.93;89.99;97108.20;1713313;84;20086;-80
2022/05/08 04:58:11;;;;;;;;;;;;;;;12.91;89.88;97112.80;1695736;83;20408;-80
2022/05/08 05:00:37;;;;;;;;;;;;;;;12.91;90.18;97112.30;1699460;84;20108;-80
2022/05/08 05:03:03;;;;;;;;;;;;;;;12.91;89.85;97118.82;1680727;85;20172;-80
2022/05/08 05:05:28;;;;;;;;;;;;;;;12.91;89.62;97121.92;1685426;85;20132;-80
2022/05/08 05:07:54;;;;;;;;;;;;;;;12.91;89.78;97125.34;1681754;85;20116;-80
2022/05/08 05:10:19;;;;;;;;;;;;;;;12.92;89.71;97125.66;1703861;84;20140;-80
2022/05/08 05:12:45;;;;;;;;;;;;;;;12.92;89.67;97127.45;1679968;85;20137;-80
2022/05/08 05:15:11;;;;;;;;;;;;;;;12.94;89.84;97124.17;1676734;85;20166;-80
2022/05/08 05:17:36;;;;;;;;;;;;;;;12.98;89.82;97131.14;1678309;86;20092;-80
2022/05/08 05:20:03;;;;;;;;;;;;;;;13.01;89.77;97134.20;1706593;84;20114;-80
2022/05/08 05:22:29;;;;;;;;;;;;;;;13.04;89.82;97129.95;1741058;82;20381;-80
2022/05/08 05:24:58;;;;;;;;;;;;;;;13.06;89.72;97134.49;1744341;82;20137;-80
2022/05/08 05:27:24;;;;;;;;;;;;;;;13.04;89.78;97132.56;1710984;83;20168;-80
2022/05/08 05:29:49;;;;;;;;;;;;;;;13.04;89.81;97134.36;1695930;84;20139;-80
2022/05/08 05:32:15;;;;;;;;;;;;;;;13.06;89.91;97142.31;1697932;84;20100;-80
2022/05/08 05:34:41;;;;;;;;;;;;;;;13.10;89.94;97139.66;1692326;84;20148;-81
2022/05/08 05:37:06;;;;;;;;;;;;;;;13.12;89.84;97131.16;1689869;84;20111;-80
2022/05/08 05:39:33;;;;;;;;;;;;;;;13.16;89.83;97138.13;1751452;81;20110;-80
2022/05/08 05:41:58;;;;;;;;;;;;;;;13.19;89.83;97141.24;1727025;82;20083;-80
2022/05/08 05:44:26;;;;;;;;;;;;;;;13.21;89.74;97141.87;1732489;82;20093;-80
2022/05/08 05:49:38;;;;;;;;;;;;;;;13.19;89.81;97138.62;1674127;84;20099;-80
2022/05/08 05:52:06;;;;;;;;;;;;;;;13.14;89.99;97146.62;1681939;84;20337;-80
2022/05/08 05:54:32;;;;;;;;;;;;;;;13.14;90.23;97146.13;1683001;84;20162;-80
2022/05/08 05:56:57;;;;;;;;;;;;;;;13.18;90.33;97147.45;1715440;83;20158;-80
2022/05/08 05:59:23;;;;;;;;;;;;;;;13.21;90.35;97149.70;1683004;84;20397;-80
2022/05/08 06:01:48;;;;;;;;;;;;;;;13.24;90.30;97150.33;1685384;84;20105;-81
2022/05/08 06:04:14;;;;;;;;;;;;;;;13.30;90.50;97152.20;1690511;85;20138;-81
2022/05/08 06:06:40;;;;;;;;;;;;;;;13.36;90.65;97143.67;1682601;85;20194;-81
2022/05/08 06:09:07;;;;;;;;;;;;;;;13.41;90.32;97141.32;1692201;83;20090;-81
2022/05/08 06:11:32;;;;;;;;;;;;;;;13.47;90.80;97145.81;1684629;83;20102;-81
2022/05/08 06:13:58;;;;;;;;;;;;;;;13.54;90.44;97143.30;1680567;85;20347;-81
2022/05/08 06:16:23;;;;;;;;;;;;;;;13.54;90.09;97136.77;1664306;86;20109;-81
2022/05/08 06:18:49;;;;;;;;;;;;;;;13.53;89.90;97139.88;1664523;86;20114;-81
2022/05/08 06:21:15;;;;;;;;;;;;;;;13.50;89.54;97137.14;1665490;85;20147;-81
2022/05/08 06:23:40;;;;;;;;;;;;;;;13.48;89.44;97143.52;1704335;83;20081;-81
2022/05/08 06:26:06;;;;;;;;;;;;;;;13.46;89.48;97138.97;1713268;83;20086;-81
2022/05/08 06:28:32;;;;;;;;;;;;;;;13.42;89.34;97141.14;1680865;85;20123;-80
2022/05/08 06:30:58;;;;;;;;;;;;;;;13.35;89.36;97144.66;1683802;83;20516;-80
2022/05/08 06:33:23;;;;;;;;;;;;;;;13.30;89.57;97145.68;1694584;83;20140;-80
2022/05/08 06:35:49;;;;;;;;;;;;;;;13.24;89.63;97147.22;1695962;85;20110;-80
2022/05/08 06:38:15;;;;;;;;;;;;;;;13.21;89.77;97144.97;1697019;85;20099;-81
2022/05/08 06:40:42;;;;;;;;;;;;;;;13.19;89.85;97143.04;1697769;84;20319;-80
2022/05/08 06:43:08;;;;;;;;;;;;;;;13.20;89.86;97157.70;1698550;83;20153;-80
2022/05/08 06:45:35;;;;;;;;;;;;;;;13.23;90.33;97154.73;1696424;83;20118;-81
2022/05/08 06:48:00;;;;;;;;;;;;;;;13.24;89.77;97155.55;1699991;83;20157;-82
2022/05/08 06:50:26;;;;;;;;;;;;;;;13.24;90.13;97154.23;1698564;83;20175;-81
2022/05/08 06:52:51;;;;;;;;;;;;;;;13.29;90.19;97161.84;1672337;85;20141;-82
2022/05/08 06:55:19;;;;;;;;;;;;;;;13.36;90.25;97163.25;1683077;83;20199;-84
2022/05/08 06:57:44;;;;;;;;;;;;;;;13.38;90.27;97165.18;1699009;83;20190;-82
2022/05/08 07:02:56;;;;;;;;;;;;;;;13.48;90.50;97165.70;1706071;83;20129;-81
2022/05/08 07:05:22;;;;;;;;;;;;;;;13.52;90.33;97165.67;1704025;83;20098;-81
2022/05/08 07:07:48;;;;;;;;;;;;;;;13.55;90.55;97165.31;1699781;83;20142;-81
2022/05/08 07:10:13;;;;;;;;;;;;;;;13.64;90.78;97161.59;1706041;83;20165;-81
2022/05/08 07:12:41;;;;;;;;;;;;;;;13.73;90.62;97159.71;1702835;83;20400;-81
2022/05/08 07:15:08;;;;;;;;;;;;;;;13.79;90.41;97165.00;1701893;83;20095;-81
2022/05/08 07:17:33;;;;;;;;;;;;;;;13.89;90.84;97162.61;1701848;84;20331;-81
2022/05/08 07:19:59;;;;;;;;;;;;;;;13.98;90.91;97164.91;1700229;83;20141;-81
2022/05/08 07:22:25;;;;;;;;;;;;;;;14.07;90.94;97166.94;1697482;84;20800;-82
2022/05/08 07:24:50;;;;;;;;;;;;;;;14.12;90.23;97168.49;1697265;83;20141;-81
2022/05/08 07:27:16;;;;;;;;;;;;;;;14.21;90.04;97169.20;1698227;85;20103;-81
2022/05/08 07:29:42;;;;;;;;;;;;;;;14.29;90.29;97169.88;1693448;83;20124;-81
2022/05/08 07:32:08;;;;;;;;;;;;;;;14.35;90.00;97173.58;1652366;85;20106;-81
2022/05/08 07:37:18;;;;;;;;;;;;;;;14.54;90.27;97173.48;1695320;84;20164;-81
2022/05/08 07:39:43;;;;;;;;;;;;;;;14.59;89.92;97180.26;1695676;84;20104;-81
2022/05/08 07:42:09;;;;;;;;;;;;;;;14.59;88.98;97177.64;1677412;85;20119;-81
2022/05/08 07:44:35;;;;;;;;;;;;;;;14.66;89.11;97183.27;1691011;84;20184;-81
2022/05/08 07:47:00;;;;;;;;;;;;;;;14.77;88.33;97182.43;1689397;84;20148;-81
2022/05/08 07:49:26;;;;;;;;;;;;;;;14.82;88.45;97179.58;1695282;84;20131;-82
2022/05/08 07:51:52;;;;;;;;;;;;;;;14.89;88.89;97188.28;1680292;85;20130;-81
2022/05/08 07:54:18;;;;;;;;;;;;;;;14.98;89.20;97183.73;1683450;83;20139;-81
2022/05/08 07:56:44;;;;;;;;;;;;;;;15.07;89.11;97189.12;1697698;83;20087;-80
2022/05/08 07:59:10;;;;;;;;;;;;;;;15.15;88.80;97185.06;1664131;84;20156;-80
2022/05/08 08:01:35;;;;;;;;;;;;;;;15.21;87.61;97188.72;1698825;84;20123;-80
2022/05/08 08:04:02;;;;;;;;;;;;;;;15.23;86.57;97189.34;1669737;86;20128;-81
2022/05/08 08:06:28;;;;;;;;;;;;;;;15.24;85.69;97189.64;1694460;85;20087;-81
2022/05/08 08:08:54;;;;;;;;;;;;;;;15.27;85.88;97190.56;1690504;85;20151;-80
2022/05/08 08:11:20;;;;;;;;;;;;;;;15.34;86.50;97190.13;1679771;84;20412;-80
2022/05/08 08:13:46;;;;;;;;;;;;;;;15.41;86.93;97189.65;1698631;84;20097;-80
2022/05/08 08:16:12;;;;;;;;;;;;;;;15.42;85.97;97191.27;1719825;83;20302;-81
2022/05/08 08:18:39;;;;;;;;;;;;;;;15.46;86.35;97194.33;1725889;83;20109;-81
2022/05/08 08:21:04;;;;;;;;;;;;;;;15.52;86.70;97189.13;1716895;82;20091;-81
2022/05/08 08:23:30;;;;;;;;;;;;;;;15.60;86.48;97186.86;1687963;85;20163;-82
2022/05/08 08:25:56;;;;;;;;;;;;;;;15.68;85.95;97193.77;1688931;85;20369;-84
2022/05/08 08:28:22;;;;;;;;;;;;;;;15.75;85.92;97191.98;1684218;85;20203;-81
2022/05/08 08:30:47;;;;;;;;;;;;;;;15.74;84.35;97193.80;1694173;85;20118;-81
2022/05/08 08:33:13;;;;;;;;;;;;;;;15.74;84.83;97191.17;1684033;85;20129;-81
2022/05/08 08:35:39;;;;;;;;;;;;;;;15.80;84.06;97197.47;1682111;85;20359;-82
2022/05/08 08:38:06;;;;;;;;;;;;;;;15.85;83.42;97197.18;1689400;85;20409;-81
2022/05/08 08:40:32;;;;;;;;;;;;;;;15.92;84.40;97190.64;1694490;84;20100;-81
2022/05/08 08:42:59;;;;;;;;;;;;;;;16.00;84.35;97194.92;1687438;84;20120;-81
2022/05/08 08:48:14;;;;;;;;;;;;;;;16.13;83.12;97199.72;1709295;84;20412;-81
2022/05/08 08:50:40;;;;;;;;;;;;;;;16.23;82.52;97195.91;1709830;84;20122;-81
2022/05/08 08:53:06;;;;;;;;;;;;;;;16.30;83.04;97196.75;1700393;84;20122;-81
2022/05/08 08:55:32;;;;;;;;;;;;;;;16.29;80.88;97201.19;1704379;84;20174;-81
2022/05/08 08:57:58;;;;;;;;;;;;;;;16.27;81.82;97201.89;1689592;84;20102;-82
2022/05/08 09:00:23;;;;;;;;;;;;;;;16.36;81.74;97206.44;1681456;85;20119;-83
2022/05/08 09:02:52;;;;;;;;;;;;;;;16.47;81.80;97205.87;1676703;85;20218;-81
2022/05/08 09:05:17;;;;;;;;;;;;;;;16.57;81.04;97208.09;1674691;85;20088;-81
2022/05/08 09:07:48;;;;;;;;;;;;;;;16.67;82.44;97210.67;1680914;84;20128;-81
2022/05/08 09:10:19;;;;;;;;;;;;;;;16.75;82.58;97207.84;1685126;84;20171;-81
2022/05/08 09:12:54;;;;;;;;;;;;;;;16.83;83.01;97210.79;1692593;85;20162;-81
2022/05/08 09:15:22;;;;;;;;;;;;;;;16.93;82.72;97211.72;1658678;85;20148;-81
2022/05/08 09:17:51;;;;;;;;;;;;;;;16.97;82.49;97205.05;1665682;85;20355;-81
2022/05/08 09:20:29;;;;;;;;;;;;;;;17.05;82.92;97206.14;1663203;85;20141;-81
2022/05/08 09:23:03;;;;;;;;;;;;;;;17.09;81.31;97204.75;1666631;86;20121;-81
2022/05/08 09:25:43;;;;;;;;;;;;;;;17.12;80.64;97210.91;1663053;85;20113;-81
2022/05/08 09:28:12;;;;;;;;;;;;;;;17.13;80.39;97211.21;1667261;85;20265;-81
2022/05/08 09:31:00;;;;;;;;;;;;;;;17.16;81.63;97211.30;1665673;85;20936;-81
2022/05/08 09:33:34;;;;;;;;;;;;;;;17.01;79.30;97212.31;1680724;85;20105;-81
2022/05/08 09:36:02;;;;;;;;;;;;;;;16.82;78.63;97211.80;1669417;84;20141;-81
2022/05/08 09:38:52;;;;;;;;;;;;;;;16.83;79.93;97209.98;1680434;84;20096;-81
2022/05/08 09:41:26;;;;;;;;;;;;;;;16.92;79.83;97210.08;1677917;84;20111;-81
2022/05/08 09:43:54;;;;;;;;;;;;;;;16.98;79.68;97202.73;1676784;84;20116;-81
2022/05/08 09:46:20;;;;;;;;;;;;;;;17.05;79.56;97203.52;1677821;84;20185;-81
2022/05/08 09:48:46;;;;;;;;;;;;;;;17.13;79.16;97202.02;1665877;85;20361;-81
2022/05/08 09:51:13;;;;;;;;;;;;;;;17.20;80.41;97196.25;1669866;84;20117;-81
2022/05/08 09:53:40;;;;;;;;;;;;;;;17.28;80.10;97203.93;1681991;84;20430;-80
2022/05/08 09:56:07;;;;;;;;;;;;;;;17.35;80.46;97199.46;1681455;84;20093;-80
2022/05/08 09:58:33;;;;;;;;;;;;;;;17.35;79.36;97197.34;1679752;84;20116;-81
2022/05/08 10:00:58;;;;;;;;;;;;;;;17.38;76.40;97202.18;1680511;84;20121;-80
2022/05/08 10:03:24;;;;;;;;;;;;;;;17.35;76.70;97198.15;1671589;84;20104;-81
2022/05/08 10:05:50;;;;;;;;;;;;;;;17.37;77.23;97196.63;1682593;85;20192;-80
2022/05/08 10:08:17;;;;;;;;;;;;;;;17.40;75.80;97201.47;1681467;85;20104;-80
2022/05/08 10:13:58;;;;;;;;;;;;;;;17.52;76.93;97199.84;1681725;84;20190;-82
2022/05/08 10:17:02;;;;;;;;;;;;;;;17.62;76.76;97196.80;1700913;84;20115;-81
2022/05/08 10:19:32;;;;;;;;;;;;;;;17.72;76.07;97190.61;1690893;84;20083;-81
2022/05/08 10:22:09;;;;;;;;;;;;;;;17.77;76.20;97181.63;1691329;84;20123;-80
2022/05/08 10:24:51;;;;;;;;;;;;;;;17.88;76.25;97184.09;1687505;84;20169;-81
2022/05/08 10:27:31;;;;;;;;;;;;;;;17.96;75.37;97182.05;1654960;84;20154;-82
2022/05/08 10:30:02;;;;;;;;;;;;;;;18.08;75.56;97179.58;1694960;84;20148;-80
2022/05/08 10:32:34;;;;;;;;;;;;;;;18.21;75.99;97176.86;1695281;83;20775;-81
2022/05/08 10:35:14;;;;;;;;;;;;;;;18.25;73.89;97177.27;1715949;83;20125;-80
2022/05/08 10:37:41;;;;;;;;;;;;;;;18.29;74.90;97171.38;1693804;83;20145;-80
2022/05/08 10:40:25;;;;;;;;;;;;;;;18.32;71.62;97175.91;1665243;84;20189;-81
2022/05/08 10:42:55;;;;;;;;;;;;;;;18.36;68.95;97178.41;1686507;85;20143;-81
2022/05/08 10:45:34;;;;;;;;;;;;;;;18.36;66.75;97177.09;1677955;85;20197;-80
2022/05/08 10:48:07;;;;;;;;;;;;;;;18.44;66.91;97175.54;1681018;85;20445;-80
2022/05/08 10:50:37;;;;;;;;;;;;;;;18.52;65.88;97180.53;1681815;84;20131;-81
2022/05/08 10:53:02;;;;;;;;;;;;;;;18.64;67.08;97176.75;1692598;85;20140;-81
2022/05/08 10:55:29;;;;;;;;;;;;;;;18.69;65.79;97179.03;1685200;85;21254;-81
2022/05/08 10:57:56;;;;;;;;;;;;;;;18.82;64.81;97164.97;1688476;85;20140;-81
2022/05/08 11:00:23;;;;;;;;;;;;;;;18.88;64.59;97165.45;1689754;85;20384;-81
2022/05/08 11:02:56;;;;;;;;;;;;;;;19.01;65.61;97159.24;1689152;85;20133;-81
2022/05/08 11:05:29;;;;;;;;;;;;;;;19.09;65.21;97161.62;1677864;85;20145;-81
2022/05/08 11:07:57;;;;;;;;;;;;;;;19.32;64.08;97160.47;1675001;85;20124;-81
2022/05/08 11:10:29;;;;;;;;;;;;;;;19.54;59.54;97154.32;1673998;86;20160;-80
2022/05/08 11:13:06;;;;;;;;;;;;;;;19.58;60.86;97147.58;1674473;86;20127;-81
2022/05/08 11:15:34;;;;;;;;;;;;;;;19.55;59.23;97151.17;1674909;86;20120;-81
2022/05/08 11:18:10;;;;;;;;;;;;;;;19.57;61.86;97142.53;1675121;85;20104;-81
2022/05/08 11:20:37;;;;;;;;;;;;;;;19.57;61.07;97142.53;1679862;84;20100;-80
2022/05/08 11:23:04;;;;;;;;;;;;;;;19.59;61.89;97136.00;1690127;85;20144;-81
2022/05/08 11:25:30;;;;;;;;;;;;;;;19.65;61.64;97140.38;1715577;84;20119;-81
2022/05/08 11:27:57;;;;;;;;;;;;;;;19.53;62.33;97135.55;1703397;84;20355;-81
2022/05/08 11:30:33;;;;;;;;;;;;;;;19.29;62.57;97136.39;1700781;84;20118;-81
2022/05/08 11:36:11;;;;;;;;;;;;;;;18.88;65.46;97139.12;1717685;84;20101;-81
2022/05/08 11:38:48;;;;;;;;;;;;;;;18.91;66.05;97130.78;1716811;83;20150;-81
2022/05/08 11:41:16;;;;;;;;;;;;;;;18.97;66.05;97130.41;1717845;84;20097;-81
2022/05/08 11:43:46;;;;;;;;;;;;;;;19.07;65.87;97130.74;1717556;84;20294;-81
2022/05/08 11:46:15;;;;;;;;;;;;;;;19.07;64.84;97133.38;1714085;84;20338;-81
2022/05/08 11:48:40;;;;;;;;;;;;;;;19.06;65.34;97125.19;1686585;85;20131;-80
2022/05/08 11:51:09;;;;;;;;;;;;;;;19.29;66.29;97127.98;1687758;85;20091;-83
2022/05/08 11:53:40;;;;;;;;;;;;;;;19.56;65.59;97127.73;1687823;84;20300;-83
2022/05/08 11:56:27;;;;;;;;;;;;;;;19.74;64.50;97124.58;1690116;85;20362;-84
2022/05/08 11:59:00;;;;;;;;;;;;;;;19.81;64.05;97121.84;1690783;84;20080;-84
2022/05/08 12:01:33;;;;;;;;;;;;;;;19.96;63.34;97118.30;1710016;83;20088;-83
2022/05/08 12:04:31;;;;;;;;;;;;;;;20.13;63.54;97117.16;1715771;83;20372;-84
2022/05/08 12:06:59;;;;;;;;;;;;;;;20.17;61.81;97121.47;1711455;83;20110;-83
2022/05/08 12:09:28;;;;;;;;;;;;;;;19.94;62.71;97126.16;1711806;83;20181;-84
2022/05/08 12:11:54;;;;;;;;;;;;;;;19.72;63.54;97118.72;1717432;83;20391;-84
2022/05/08 12:14:36;;;;;;;;;;;;;;;19.61;63.92;97114.69;1696499;83;20157;-84
2022/05/08 12:17:02;;;;;;;;;;;;;;;19.60;63.38;97121.80;1696253;83;20111;-83
2022/05/08 12:19:29;;;;;;;;;;;;;;;19.61;63.45;97118.65;1695705;83;20305;-84
2022/05/08 12:21:55;;;;;;;;;;;;;;;19.63;61.75;97120.03;1696414;83;20126;-83
2022/05/08 12:24:21;;;;;;;;;;;;;;;19.69;59.83;97119.68;1695572;83;20367;-84
2022/05/08 12:26:46;;;;;;;;;;;;;;;19.75;59.50;97114.31;1664167;83;20142;-83
2022/05/08 12:29:22;;;;;;;;;;;;;;;19.78;58.74;97116.50;1709129;83;20429;-84
2022/05/08 12:31:51;;;;;;;;;;;;;;;19.82;56.91;97111.59;1695044;84;20365;-84
2022/05/08 12:34:20;;;;;;;;;;;;;;;19.79;57.14;97114.67;1692121;85;20091;-84
2022/05/08 12:36:45;;;;;;;;;;;;;;;19.78;56.39;97114.38;1723801;83;20201;-84
2022/05/08 12:39:11;;;;;;;;;;;;;;;19.79;55.94;97106.76;1724437;83;20361;-84
2022/05/08 12:41:37;;;;;;;;;;;;;;;19.79;56.72;97104.93;1724394;83;20115;-84
2022/05/08 12:44:03;;;;;;;;;;;;;;;19.84;56.88;97102.13;1724525;83;20171;-84
2022/05/08 12:46:30;;;;;;;;;;;;;;;19.77;56.51;97103.03;1724245;83;20123;-84
2022/05/08 12:49:04;;;;;;;;;;;;;;;19.76;58.57;97100.62;1725030;83;20088;-84
2022/05/08 12:51:32;;;;;;;;;;;;;;;19.74;56.14;97100.04;1725426;83;20372;-84
2022/05/08 12:53:57;;;;;;;;;;;;;;;19.75;55.73;97097.69;1725377;83;20319;-84
2022/05/08 12:56:24;;;;;;;;;;;;;;;19.72;55.57;97097.63;1725246;83;20141;-84
2022/05/08 13:01:34;;;;;;;;;;;;;;;19.79;55.43;97095.70;1720357;83;20136;-84
2022/05/08 13:04:00;;;;;;;;;;;;;;;19.83;55.50;97097.88;1691218;84;20390;-84
2022/05/08 13:06:26;;;;;;;;;;;;;;;20.03;56.85;97098.45;1700504;83;20400;-84
2022/05/08 13:08:53;;;;;;;;;;;;;;;20.17;55.57;97099.84;1679704;85;20145;-84
2022/05/08 13:11:19;;;;;;;;;;;;;;;20.11;57.96;97092.04;1679322;85;20124;-84
2022/05/08 13:13:45;;;;;;;;;;;;;;;19.96;59.73;97092.44;1704710;84;20118;-84
2022/05/08 13:16:14;;;;;;;;;;;;;;;19.86;59.63;97092.19;1674099;86;20174;-84
2022/05/08 13:18:38;;;;;;;;;;;;;;;19.87;59.84;97094.60;1686460;84;20110;-84
2022/05/08 13:21:05;;;;;;;;;;;;;;;19.92;59.80;97093.41;1679543;84;20159;-84
2022/05/08 13:23:30;;;;;;;;;;;;;;;19.86;60.15;97098.78;1703421;83;20127;-84